createdAt,value
2018-04-14T00:00:21.867Z,9.60
2018-04-14T00:02:50.940Z,9.70
2018-04-14T00:05:19.223Z,9.60
2018-04-14T00:07:47.505Z,9.70
2018-04-14T00:10:15.778Z,9.70
2018-04-14T00:12:44.068Z,9.70
2018-04-14T00:15:12.348Z,9.70
2018-04-14T00:17:41.387Z,9.70
2018-04-14T00:20:09.719Z,9.70
2018-04-14T00:22:37.994Z,9.60
2018-04-14T00:25:06.301Z,9.60
2018-04-14T00:27:34.571Z,9.60
2018-04-14T00:30:02.859Z,9.60
2018-04-14T00:32:31.193Z,9.70
2018-04-14T00:34:59.465Z,9.70
2018-04-14T00:37:27.749Z,9.60
2018-04-14T00:39:56.030Z,9.60
2018-04-14T00:42:24.498Z,9.50
2018-04-14T00:44:53.568Z,9.50
2018-04-14T00:47:21.856Z,9.50
2018-04-14T00:49:50.203Z,9.50
2018-04-14T00:52:18.498Z,9.50
2018-04-14T00:54:46.777Z,9.50
2018-04-14T00:57:15.084Z,9.50
2018-04-14T00:59:43.373Z,9.50
2018-04-14T01:02:11.652Z,9.40
2018-04-14T01:04:39.928Z,9.50
2018-04-14T01:07:08.209Z,9.50
2018-04-14T01:09:36.514Z,9.50
2018-04-14T01:12:04.781Z,9.50
2018-04-14T01:14:33.057Z,9.50
2018-04-14T01:17:01.341Z,9.50
2018-04-14T01:19:29.662Z,9.50
2018-04-14T01:21:57.977Z,9.50
2018-04-14T01:24:26.274Z,9.50
2018-04-14T01:26:54.557Z,9.40
2018-04-14T01:29:22.838Z,9.40
2018-04-14T01:31:51.145Z,9.40
2018-04-14T01:34:19.487Z,9.40
2018-04-14T01:36:47.759Z,9.40
2018-04-14T01:39:16.036Z,9.30
2018-04-14T01:41:44.306Z,9.20
2018-04-14T01:44:12.584Z,9.20
2018-04-14T01:46:41.152Z,9.20
2018-04-14T01:49:09.449Z,9.20
2018-04-14T01:51:38.497Z,9.20
2018-04-14T01:54:06.786Z,9.20
2018-04-14T01:56:35.054Z,9.20
2018-04-14T01:59:03.326Z,9.20
2018-04-14T02:01:31.614Z,9.20
2018-04-14T02:03:59.904Z,9.20
2018-04-14T02:06:28.219Z,9.20
2018-04-14T02:08:56.499Z,9.20
2018-04-14T02:11:25.921Z,9.10
2018-04-14T02:13:54.218Z,9.10
2018-04-14T02:16:22.492Z,9.10
2018-04-14T02:18:50.805Z,9.20
2018-04-14T02:21:19.115Z,9.20
2018-04-14T02:23:47.392Z,9.20
2018-04-14T02:26:15.673Z,9.20
2018-04-14T02:28:43.953Z,9.20
2018-04-14T02:31:12.240Z,9.20
2018-04-14T02:33:40.515Z,9.20
2018-04-14T02:36:08.794Z,9.10
2018-04-14T02:38:37.071Z,9.20
2018-04-14T02:41:05.358Z,9.10
2018-04-14T02:43:33.646Z,9.10
2018-04-14T02:46:01.910Z,9.10
2018-04-14T02:48:30.196Z,9.10
2018-04-14T02:50:58.494Z,9.10
2018-04-14T02:53:27.545Z,9.00
2018-04-14T02:55:55.822Z,9.00
2018-04-14T02:58:24.106Z,9.00
2018-04-14T03:00:52.397Z,9.10
2018-04-14T03:03:20.671Z,9.00
2018-04-14T03:05:48.950Z,9.00
2018-04-14T03:08:17.225Z,8.90
2018-04-14T03:10:45.517Z,8.90
2018-04-14T03:13:13.797Z,8.80
2018-04-14T03:15:42.082Z,8.80
2018-04-14T03:18:10.362Z,8.80
2018-04-14T03:20:38.660Z,8.70
2018-04-14T03:23:06.944Z,8.70
2018-04-14T03:25:35.220Z,8.70
2018-04-14T03:28:03.527Z,8.60
2018-04-14T03:30:31.784Z,8.60
2018-04-14T03:33:00.095Z,8.70
2018-04-14T03:35:29.139Z,8.70
2018-04-14T03:37:57.420Z,8.70
2018-04-14T03:40:25.701Z,8.70
2018-04-14T03:42:53.998Z,8.70
2018-04-14T03:45:23.060Z,8.70
2018-04-14T03:47:51.350Z,8.70
2018-04-14T03:50:19.633Z,8.70
2018-04-14T03:52:47.905Z,8.70
2018-04-14T03:55:16.196Z,8.70
2018-04-14T03:57:45.255Z,8.60
2018-04-14T04:00:13.556Z,8.60
2018-04-14T04:02:41.829Z,8.60
2018-04-14T04:05:10.165Z,8.60
2018-04-14T04:07:38.459Z,8.60
2018-04-14T04:10:06.763Z,8.60
2018-04-14T04:12:35.039Z,8.60
2018-04-14T04:15:04.095Z,8.60
2018-04-14T04:17:32.397Z,8.60
2018-04-14T04:20:12.614Z,8.60
2018-04-14T04:22:52.709Z,8.70
2018-04-14T04:25:39.797Z,8.60
2018-04-14T04:28:08.071Z,8.60
2018-04-14T04:30:36.372Z,8.50
2018-04-14T04:33:04.647Z,8.50
2018-04-14T04:35:32.947Z,8.50
2018-04-14T04:38:01.984Z,8.50
2018-04-14T04:40:30.296Z,8.50
2018-04-14T04:42:58.589Z,8.40
2018-04-14T04:45:27.633Z,8.40
2018-04-14T04:47:55.924Z,8.40
2018-04-14T04:50:24.219Z,8.40
2018-04-14T04:52:52.522Z,8.40
2018-04-14T04:55:20.792Z,8.50
2018-04-14T04:57:49.111Z,8.50
2018-04-14T05:00:17.392Z,8.50
2018-04-14T05:02:45.694Z,8.40
2018-04-14T05:05:14.764Z,8.40
2018-04-14T05:07:43.023Z,8.40
2018-04-14T05:10:11.313Z,8.50
2018-04-14T05:12:39.584Z,8.40
2018-04-14T05:15:07.901Z,8.40
2018-04-14T05:17:36.943Z,8.50
2018-04-14T05:20:05.228Z,8.40
2018-04-14T05:22:33.512Z,8.40
2018-04-14T05:25:01.779Z,8.50
2018-04-14T05:27:30.071Z,8.50
2018-04-14T05:29:58.344Z,8.40
2018-04-14T05:32:27.527Z,8.50
2018-04-14T05:34:55.798Z,8.50
2018-04-14T05:37:24.081Z,8.60
2018-04-14T05:39:52.353Z,8.50
2018-04-14T05:42:20.633Z,8.50
2018-04-14T05:44:48.905Z,8.60
2018-04-14T05:47:17.207Z,8.60
2018-04-14T05:49:46.285Z,8.80
2018-04-14T05:52:14.583Z,8.80
2018-04-14T05:54:43.655Z,8.60
2018-04-14T05:57:11.949Z,8.60
2018-04-14T05:59:40.231Z,8.60
2018-04-14T06:02:08.535Z,8.60
2018-04-14T06:04:36.830Z,8.50
2018-04-14T06:07:05.096Z,8.60
2018-04-14T06:09:33.383Z,8.50
2018-04-14T06:12:01.679Z,8.60
2018-04-14T06:14:29.955Z,8.60
2018-04-14T06:16:58.222Z,8.60
2018-04-14T06:19:26.499Z,8.50
2018-04-14T06:21:54.755Z,8.50
2018-04-14T06:24:23.037Z,8.50
2018-04-14T06:26:51.295Z,8.50
2018-04-14T06:29:19.590Z,8.60
2018-04-14T06:31:47.868Z,8.60
2018-04-14T06:34:16.159Z,8.60
2018-04-14T06:36:44.454Z,8.70
2018-04-14T06:39:12.734Z,8.70
2018-04-14T06:41:41.804Z,8.70
2018-04-14T06:44:10.093Z,8.70
2018-04-14T06:46:38.376Z,8.90
2018-04-14T06:49:07.438Z,8.90
2018-04-14T06:51:35.730Z,8.80
2018-04-14T06:54:03.997Z,8.90
2018-04-14T06:56:32.275Z,9.10
2018-04-14T06:59:00.592Z,9.00
2018-04-14T07:01:28.877Z,9.00
2018-04-14T07:03:57.159Z,9.00
2018-04-14T07:06:25.495Z,9.10
2018-04-14T07:08:54.392Z,9.10
2018-04-14T07:11:23.453Z,9.20
2018-04-14T07:13:51.759Z,9.20
2018-04-14T07:16:20.805Z,9.30
2018-04-14T07:18:49.100Z,9.30
2018-04-14T07:21:17.379Z,9.30
2018-04-14T07:23:45.643Z,9.30
2018-04-14T07:26:13.946Z,9.40
2018-04-14T07:28:42.216Z,9.60
2018-04-14T07:31:10.513Z,9.70
2018-04-14T07:33:38.793Z,9.90
2018-04-14T07:36:07.129Z,9.90
2018-04-14T07:38:35.470Z,9.90
2018-04-14T07:41:03.754Z,10.00
2018-04-14T07:43:32.060Z,10.00
2018-04-14T07:46:01.324Z,10.00
2018-04-14T07:48:29.603Z,10.30
2018-04-14T07:50:57.887Z,10.40
2018-04-14T07:53:26.152Z,10.50
2018-04-14T07:55:54.435Z,10.70
2018-04-14T07:58:22.788Z,10.70
2018-04-14T08:00:51.064Z,10.60
2018-04-14T08:03:19.377Z,10.70
2018-04-14T08:05:47.684Z,10.60
2018-04-14T08:08:16.751Z,10.50
2018-04-14T08:10:45.065Z,10.50
2018-04-14T08:13:13.358Z,10.50
2018-04-14T08:15:41.630Z,10.60
2018-04-14T08:18:09.943Z,11.00
2018-04-14T08:20:38.216Z,11.40
2018-04-14T08:23:06.511Z,11.50
2018-04-14T08:25:35.726Z,11.30
2018-04-14T08:28:04.816Z,11.30
2018-04-14T08:30:34.860Z,11.30
2018-04-14T08:33:03.684Z,12.00
2018-04-14T08:35:32.103Z,12.50
2018-04-14T08:38:01.297Z,12.20
2018-04-14T08:40:30.572Z,12.10
2018-04-14T08:42:59.782Z,13.20
2018-04-14T08:45:28.092Z,13.10
2018-04-14T08:47:56.392Z,13.40
2018-04-14T08:50:24.695Z,13.40
2018-04-14T08:52:53.007Z,13.90
2018-04-14T08:55:21.306Z,14.30
2018-04-14T08:57:49.612Z,13.60
2018-04-14T09:00:17.905Z,14.20
2018-04-14T09:02:46.178Z,14.70
2018-04-14T09:05:14.486Z,15.50
2018-04-14T09:07:43.544Z,13.40
2018-04-14T09:10:11.857Z,13.30
2018-04-14T09:12:40.191Z,13.00
2018-04-14T09:15:14.305Z,12.60
2018-04-14T09:17:42.777Z,12.50
2018-04-14T09:20:11.070Z,12.10
2018-04-14T09:22:39.365Z,12.10
2018-04-14T09:25:08.431Z,12.80
2018-04-14T09:27:36.715Z,12.80
2018-04-14T09:30:04.987Z,13.40
2018-04-14T09:32:33.345Z,13.50
2018-04-14T09:35:01.636Z,13.60
2018-04-14T09:37:29.940Z,13.90
2018-04-14T09:39:58.241Z,14.10
2018-04-14T09:42:26.807Z,14.20
2018-04-14T09:44:55.120Z,14.00
2018-04-14T09:47:23.434Z,14.30
2018-04-14T09:49:51.695Z,15.30
2018-04-14T09:52:19.990Z,14.60
2018-04-14T09:54:49.032Z,14.60
2018-04-14T09:57:17.330Z,14.60
2018-04-14T09:59:45.620Z,14.60
2018-04-14T10:02:13.975Z,14.00
2018-04-14T10:04:42.255Z,14.30
2018-04-14T10:07:11.551Z,13.90
2018-04-14T10:09:39.977Z,13.90
2018-04-14T10:12:09.020Z,13.70
2018-04-14T10:14:37.427Z,13.70
2018-04-14T10:17:05.723Z,15.00
2018-04-14T10:19:35.144Z,15.40
2018-04-14T10:22:05.025Z,15.30
2018-04-14T10:24:36.451Z,14.20
2018-04-14T10:27:04.809Z,14.20
2018-04-14T10:29:33.067Z,14.60
2018-04-14T10:32:01.425Z,15.30
2018-04-14T10:34:29.723Z,16.10
2018-04-14T10:36:58.029Z,15.80
2018-04-14T10:39:26.395Z,15.50
2018-04-14T10:41:55.218Z,16.10
2018-04-14T10:44:23.535Z,15.90
2018-04-14T10:46:51.876Z,16.60
2018-04-14T10:49:20.215Z,16.40
2018-04-14T10:51:48.488Z,16.80
2018-04-14T10:54:16.783Z,17.30
2018-04-14T10:56:45.114Z,17.20
2018-04-14T10:59:13.392Z,17.60
2018-04-14T11:01:41.698Z,17.30
2018-04-14T11:04:10.060Z,17.40
2018-04-14T11:06:38.371Z,17.70
2018-04-14T11:09:06.665Z,18.40
2018-04-14T11:11:35.948Z,18.60
2018-04-14T11:14:04.248Z,18.60
2018-04-14T11:16:33.316Z,18.70
2018-04-14T11:19:01.690Z,18.60
2018-04-14T11:21:30.795Z,18.50
2018-04-14T11:26:32.519Z,18.90
2018-04-14T11:29:00.830Z,19.10
2018-04-14T11:31:29.138Z,19.20
2018-04-14T11:33:57.472Z,18.50
2018-04-14T11:36:25.858Z,18.80
2018-04-14T11:38:54.207Z,19.00
2018-04-14T11:41:23.241Z,18.80
2018-04-14T11:43:51.513Z,18.70
2018-04-14T11:46:19.851Z,19.00
2018-04-14T11:48:48.123Z,18.20
2018-04-14T11:51:17.408Z,18.60
2018-04-14T11:53:46.177Z,18.70
2018-04-14T11:56:14.512Z,18.80
2018-04-14T11:58:42.873Z,19.30
2018-04-14T12:01:11.156Z,19.40
2018-04-14T12:03:41.016Z,19.10
2018-04-14T12:06:09.308Z,18.60
2018-04-14T12:11:10.804Z,17.90
2018-04-14T12:13:39.169Z,17.60
2018-04-14T12:16:08.070Z,17.50
2018-04-14T12:18:36.521Z,17.50
2018-04-14T12:21:05.416Z,17.50
2018-04-14T12:23:33.905Z,17.60
2018-04-14T12:26:02.268Z,17.70
2018-04-14T12:28:30.609Z,17.80
2018-04-14T12:30:59.119Z,18.00
2018-04-14T12:33:27.531Z,18.20
2018-04-14T12:35:56.161Z,17.80
2018-04-14T12:38:24.523Z,17.90
2018-04-14T12:40:52.911Z,18.00
2018-04-14T12:43:22.004Z,18.30
2018-04-14T12:45:50.416Z,18.40
2018-04-14T12:48:18.701Z,18.20
2018-04-14T12:50:47.290Z,18.30
2018-04-14T12:53:15.592Z,18.30
2018-04-14T12:55:44.136Z,18.40
2018-04-14T12:58:12.439Z,18.30
2018-04-14T13:00:40.873Z,18.30
2018-04-14T13:03:09.438Z,18.60
2018-04-14T13:05:37.866Z,19.10
2018-04-14T13:08:06.133Z,19.20
2018-04-14T13:10:34.464Z,19.70
2018-04-14T13:13:02.903Z,19.70
2018-04-14T13:15:31.265Z,19.60
2018-04-14T13:17:59.691Z,19.20
2018-04-14T13:20:28.069Z,19.20
2018-04-14T13:22:56.619Z,19.50
2018-04-14T13:25:25.827Z,19.70
2018-04-14T13:27:54.170Z,19.40
2018-04-14T13:30:24.207Z,19.90
2018-04-14T13:32:52.851Z,19.60
2018-04-14T13:35:21.131Z,19.50
2018-04-14T13:37:49.467Z,19.20
2018-04-14T13:40:18.582Z,18.90
2018-04-14T13:42:46.883Z,19.00
2018-04-14T13:45:15.191Z,19.40
2018-04-14T13:47:43.510Z,20.00
2018-04-14T13:50:11.815Z,19.80
2018-04-14T13:52:40.674Z,19.60
2018-04-14T13:55:11.101Z,19.30
2018-04-14T13:57:43.504Z,19.10
2018-04-14T14:00:12.433Z,19.30
2018-04-14T14:02:44.015Z,20.30
2018-04-14T14:05:13.537Z,19.90
2018-04-14T14:07:49.816Z,19.60
2018-04-14T14:10:20.107Z,19.60
2018-04-14T14:12:48.503Z,19.30
2018-04-14T14:15:20.048Z,19.20
2018-04-14T14:17:49.842Z,19.30
2018-04-14T14:20:18.444Z,19.60
2018-04-14T14:22:51.143Z,19.40
2018-04-14T14:25:20.589Z,20.20
2018-04-14T14:27:55.986Z,20.20
2018-04-14T14:30:28.987Z,19.70
2018-04-14T14:32:59.354Z,19.50
2018-04-14T14:35:29.653Z,19.70
2018-04-14T14:40:36.854Z,19.90
2018-04-14T14:43:05.769Z,19.90
2018-04-14T14:45:39.159Z,20.00
2018-04-14T14:48:11.604Z,20.10
2018-04-14T14:50:40.739Z,20.00
2018-04-14T14:53:10.705Z,19.60
2018-04-14T14:55:39.135Z,19.60
2018-04-14T14:58:08.738Z,19.60
2018-04-14T15:00:38.352Z,19.50
2018-04-14T15:03:10.867Z,19.50
2018-04-14T15:05:43.459Z,19.50
2018-04-14T15:08:12.141Z,19.50
2018-04-14T15:10:40.523Z,19.70
2018-04-14T15:13:09.156Z,19.70
2018-04-14T15:15:38.171Z,19.80
2018-04-14T15:18:06.464Z,20.00
2018-04-14T15:20:34.800Z,20.00
2018-04-14T15:23:03.148Z,20.00
2018-04-14T15:25:31.515Z,19.90
2018-04-14T15:28:01.638Z,20.10
2018-04-14T15:30:30.285Z,20.20
2018-04-14T15:32:58.638Z,20.00
2018-04-14T15:35:26.962Z,19.70
2018-04-14T15:37:55.322Z,19.30
2018-04-14T15:40:23.679Z,19.50
2018-04-14T15:42:52.118Z,19.40
2018-04-14T15:45:21.227Z,20.00
2018-04-14T15:47:50.042Z,20.00
2018-04-14T15:50:23.705Z,20.20
2018-04-14T15:52:52.922Z,19.60
2018-04-14T15:55:22.337Z,19.60
2018-04-14T15:57:50.635Z,19.50
2018-04-14T16:00:19.056Z,19.80
2018-04-14T16:02:47.412Z,19.90
2018-04-14T16:05:15.750Z,20.00
2018-04-14T16:07:44.959Z,20.00
2018-04-14T16:10:13.800Z,19.70
2018-04-14T16:12:42.191Z,19.60
2018-04-14T16:15:11.076Z,19.60
2018-04-14T16:17:39.595Z,19.50
2018-04-14T16:20:08.016Z,19.50
2018-04-14T16:22:56.509Z,19.50
2018-04-14T16:28:25.520Z,19.60
2018-04-14T16:30:56.365Z,19.40
2018-04-14T16:33:24.674Z,19.00
2018-04-14T16:35:52.982Z,19.10
2018-04-14T16:38:21.266Z,18.90
2018-04-14T16:40:49.588Z,18.80
2018-04-14T16:43:17.999Z,18.80
2018-04-14T16:45:46.397Z,18.80
2018-04-14T16:48:15.455Z,18.50
2018-04-14T16:50:43.782Z,18.50
2018-04-14T16:53:12.954Z,18.50
2018-04-14T16:55:41.291Z,18.40
2018-04-14T16:58:10.003Z,18.40
2018-04-14T17:00:38.317Z,18.30
2018-04-14T17:03:06.614Z,18.30
2018-04-14T17:05:34.951Z,18.30
2018-04-14T17:08:03.245Z,18.20
2018-04-14T17:10:32.324Z,18.30
2018-04-14T17:13:00.631Z,18.10
2018-04-14T17:15:28.987Z,18.00
2018-04-14T17:17:57.362Z,18.00
2018-04-14T17:20:26.315Z,18.00
2018-04-14T17:22:54.971Z,17.90
2018-04-14T17:25:23.339Z,17.90
2018-04-14T17:27:51.644Z,17.90
2018-04-14T17:30:19.962Z,17.80
2018-04-14T17:32:48.276Z,17.80
2018-04-14T17:35:16.557Z,17.70
2018-04-14T17:37:44.899Z,17.70
2018-04-14T17:40:13.244Z,17.70
2018-04-14T17:42:41.532Z,17.60
2018-04-14T17:45:09.814Z,17.60
2018-04-14T17:47:38.148Z,17.60
2018-04-14T17:50:06.479Z,17.50
2018-04-14T17:52:36.947Z,17.50
2018-04-14T17:55:05.448Z,17.40
2018-04-14T17:57:34.485Z,17.30
2018-04-14T18:00:02.810Z,17.30
2018-04-14T18:02:31.191Z,17.20
2018-04-14T18:04:59.523Z,17.10
2018-04-14T18:07:27.810Z,17.10
2018-04-14T18:09:56.093Z,17.00
2018-04-14T18:12:24.410Z,17.00
2018-04-14T18:14:53.267Z,17.00
2018-04-14T18:17:21.575Z,17.00
2018-04-14T18:19:49.891Z,17.00
2018-04-14T18:22:18.171Z,17.00
2018-04-14T18:24:46.470Z,17.00
2018-04-14T18:27:14.746Z,17.00
2018-04-14T18:29:43.061Z,17.00
2018-04-14T18:32:12.177Z,16.80
2018-04-14T18:34:40.713Z,16.80
2018-04-14T18:37:09.952Z,16.80
2018-04-14T18:39:38.345Z,16.80
2018-04-14T18:42:06.687Z,16.70
2018-04-14T18:44:35.042Z,16.70
2018-04-14T18:47:03.384Z,16.70
2018-04-14T18:49:31.678Z,16.60
2018-04-14T18:52:01.061Z,16.60
2018-04-14T18:54:29.435Z,16.60
2018-04-14T18:56:57.789Z,16.60
2018-04-14T18:59:27.138Z,16.50
2018-04-14T19:01:55.494Z,16.50
2018-04-14T19:04:24.533Z,16.50
2018-04-14T19:06:52.853Z,16.50
2018-04-14T19:09:21.257Z,16.60
2018-04-14T19:11:49.571Z,16.60
2018-04-14T19:14:17.879Z,16.50
2018-04-14T19:16:46.558Z,16.40
2018-04-14T19:19:15.322Z,16.40
2018-04-14T19:21:44.198Z,16.40
2018-04-14T19:24:13.840Z,16.30
2018-04-14T19:31:56.454Z,16.20
2018-04-14T19:34:24.699Z,16.20
2018-04-14T19:36:53.741Z,16.10
2018-04-14T19:39:22.035Z,16.10
2018-04-14T19:41:50.311Z,16.10
2018-04-14T19:44:18.644Z,16.10
2018-04-14T19:46:46.968Z,16.10
2018-04-14T19:49:16.178Z,15.90
2018-04-14T19:51:44.449Z,15.90
2018-04-14T19:54:12.772Z,15.90
2018-04-14T19:56:41.067Z,15.80
2018-04-14T19:59:09.369Z,15.70
2018-04-14T20:01:37.683Z,15.60
2018-04-14T20:04:06.733Z,15.50
2018-04-14T20:06:35.041Z,15.50
2018-04-14T20:09:04.133Z,15.50
2018-04-14T20:11:32.428Z,15.50
2018-04-14T20:14:01.560Z,15.40
2018-04-14T20:16:29.904Z,15.40
2018-04-14T20:18:58.199Z,15.40
2018-04-14T20:21:26.488Z,15.30
2018-04-14T20:23:54.814Z,15.30
2018-04-14T20:26:23.884Z,15.20
2018-04-14T20:28:52.177Z,15.20
2018-04-14T20:31:20.533Z,15.10
2018-04-14T20:33:48.821Z,14.90
2018-04-14T20:36:17.127Z,14.80
2018-04-14T20:38:46.280Z,14.70
2018-04-14T20:41:14.588Z,14.70
2018-04-14T20:49:42.445Z,14.50
2018-04-14T20:52:10.707Z,14.60
2018-04-14T20:54:39.177Z,14.40
2018-04-14T20:57:07.461Z,14.40
2018-04-14T20:59:35.742Z,14.30
2018-04-14T21:02:04.045Z,14.20
2018-04-14T21:04:32.564Z,14.10
2018-04-14T21:07:00.863Z,14.10
2018-04-14T21:09:29.503Z,13.90
2018-04-14T21:11:57.828Z,13.80
2018-04-14T21:14:26.135Z,13.70
2018-04-14T21:16:54.430Z,13.70
2018-04-14T21:19:22.718Z,13.60
2018-04-14T21:21:50.985Z,13.60
2018-04-14T21:24:19.321Z,13.60
2018-04-14T21:26:47.635Z,13.60
2018-04-14T21:29:15.913Z,13.50
2018-04-14T21:31:44.277Z,13.40
2018-04-14T21:34:12.565Z,13.30
2018-04-14T21:36:40.892Z,13.30
2018-04-14T21:39:09.214Z,13.10
2018-04-14T21:41:37.571Z,13.10
2018-04-14T21:44:05.846Z,13.10
2018-04-14T21:46:40.339Z,13.10
2018-04-14T21:49:14.418Z,13.10
2018-04-14T21:51:48.158Z,13.10
2018-04-14T21:54:22.051Z,13.10
2018-04-14T21:56:55.889Z,13.00
2018-04-14T21:59:30.892Z,13.00
2018-04-14T22:02:04.768Z,12.80
2018-04-14T22:04:33.264Z,12.80
2018-04-14T22:07:01.543Z,12.80
2018-04-14T22:09:29.839Z,12.80
2018-04-14T22:11:58.144Z,12.70
2018-04-14T22:14:33.388Z,12.60
2018-04-14T22:17:01.991Z,12.70
2018-04-14T22:19:30.272Z,12.80
2018-04-14T22:21:58.573Z,12.70
2018-04-14T22:24:26.857Z,12.60
2018-04-14T22:26:55.156Z,12.60
2018-04-14T22:29:23.522Z,12.60
2018-04-14T22:31:51.807Z,12.60
2018-04-14T22:34:20.085Z,12.60
2018-04-14T22:36:48.400Z,12.50
2018-04-14T22:39:16.684Z,12.50
2018-04-14T22:41:44.963Z,12.50
2018-04-14T22:44:13.266Z,12.40
2018-04-14T22:46:41.553Z,12.40
2018-04-14T22:49:09.841Z,12.30
2018-04-14T22:51:38.136Z,12.30
2018-04-14T22:54:06.424Z,12.40
2018-04-14T22:56:34.728Z,12.40
2018-04-14T22:59:03.012Z,12.30
2018-04-14T23:01:31.289Z,12.30
2018-04-14T23:03:59.577Z,12.20
2018-04-14T23:06:27.879Z,12.10
2018-04-14T23:08:56.185Z,12.10
2018-04-14T23:11:25.253Z,12.00
2018-04-14T23:13:53.551Z,12.00
2018-04-14T23:16:21.929Z,12.00
2018-04-14T23:18:50.235Z,12.00
2018-04-14T23:21:18.552Z,12.00
2018-04-14T23:23:46.831Z,11.90
2018-04-14T23:26:15.117Z,11.90
2018-04-14T23:28:43.471Z,11.90
2018-04-14T23:31:11.749Z,11.80
2018-04-14T23:33:40.067Z,11.80
2018-04-14T23:36:08.361Z,11.80
2018-04-14T23:38:36.673Z,11.70
2018-04-14T23:41:05.120Z,11.70
2018-04-14T23:43:33.401Z,11.80
2018-04-14T23:46:01.692Z,11.80
2018-04-14T23:48:30.125Z,12.00
2018-04-14T23:50:58.403Z,12.10
2018-04-14T23:53:26.678Z,12.00
2018-04-14T23:55:55.022Z,11.70
2018-04-14T23:58:23.328Z,11.70
